createdAt,value
2023-04-19T00:01:29.466Z,98.40
2023-04-19T00:04:01.515Z,98.60
2023-04-19T00:06:34.443Z,98.70
2023-04-19T00:09:06.255Z,98.80
2023-04-19T00:11:38.098Z,99.00
2023-04-19T00:14:10.129Z,98.90
2023-04-19T00:16:42.219Z,98.90
2023-04-19T00:19:14.241Z,99.00
2023-04-19T00:21:46.204Z,99.10
2023-04-19T00:24:18.338Z,99.20
2023-04-19T00:26:50.232Z,99.30
2023-04-19T00:29:22.078Z,99.20
2023-04-19T00:31:54.007Z,99.30
2023-04-19T00:34:26.169Z,99.20
2023-04-19T00:37:00.833Z,99.40
2023-04-19T00:39:32.784Z,99.60
2023-04-19T00:42:04.706Z,99.90
2023-04-19T00:44:36.752Z,99.80
2023-04-19T00:47:08.772Z,99.90
2023-04-19T00:49:41.032Z,99.80
2023-04-19T00:52:13.067Z,99.80
2023-04-19T00:54:45.708Z,99.80
2023-04-19T00:57:19.663Z,99.80
2023-04-19T00:59:52.101Z,99.90
2023-04-19T01:02:24.183Z,99.80
2023-04-19T01:04:56.469Z,99.80
2023-04-19T01:07:28.612Z,99.80
2023-04-19T01:10:00.560Z,99.90
2023-04-19T01:12:51.340Z,99.90
2023-04-19T01:15:23.574Z,99.90
2023-04-19T01:17:56.452Z,99.90
2023-04-19T01:20:31.379Z,99.90
2023-04-19T01:23:04.539Z,99.90
2023-04-19T01:25:36.476Z,99.90
2023-04-19T01:28:08.474Z,99.90
2023-04-19T01:30:40.440Z,99.90
2023-04-19T01:33:12.362Z,99.90
2023-04-19T01:35:44.223Z,99.90
2023-04-19T01:38:17.038Z,99.90
2023-04-19T01:40:49.055Z,99.90
2023-04-19T01:43:21.021Z,99.90
2023-04-19T01:45:52.980Z,99.90
2023-04-19T01:48:25.021Z,99.90
2023-04-19T01:50:58.500Z,99.90
2023-04-19T01:53:30.397Z,99.90
2023-04-19T01:56:02.254Z,99.90
2023-04-19T01:58:34.129Z,99.90
2023-04-19T02:01:06.133Z,99.90
2023-04-19T02:03:41.120Z,99.90
2023-04-19T02:06:17.293Z,99.90
2023-04-19T02:08:51.211Z,99.90
2023-04-19T02:11:23.193Z,99.90
2023-04-19T02:13:55.530Z,99.90
2023-04-19T02:16:27.613Z,99.90
2023-04-19T02:18:59.473Z,99.90
2023-04-19T02:21:31.986Z,99.90
2023-04-19T02:24:04.037Z,99.90
2023-04-19T02:26:36.533Z,99.90
2023-04-19T02:29:09.996Z,99.90
2023-04-19T02:31:46.389Z,99.90
2023-04-19T02:34:18.659Z,99.90
2023-04-19T02:36:50.950Z,99.90
2023-04-19T02:39:22.851Z,99.90
2023-04-19T02:41:55.278Z,99.90
2023-04-19T02:44:27.775Z,99.90
2023-04-19T02:46:59.816Z,99.90
2023-04-19T02:49:36.977Z,99.90
2023-04-19T02:52:09.548Z,99.90
2023-04-19T02:54:43.828Z,99.90
2023-04-19T02:57:15.762Z,99.90
2023-04-19T02:59:48.946Z,99.90
2023-04-19T03:02:23.966Z,99.90
2023-04-19T03:04:55.966Z,99.90
2023-04-19T03:07:28.114Z,99.90
2023-04-19T03:10:00.018Z,99.90
2023-04-19T03:12:32.048Z,99.90
2023-04-19T03:15:04.312Z,99.90
2023-04-19T03:17:37.520Z,99.90
2023-04-19T03:20:11.710Z,99.90
2023-04-19T03:22:43.840Z,99.90
2023-04-19T03:25:16.044Z,99.90
2023-04-19T03:27:52.162Z,99.90
2023-04-19T03:30:33.488Z,99.90
2023-04-19T03:33:05.536Z,99.90
2023-04-19T03:35:37.622Z,99.90
2023-04-19T03:38:15.588Z,99.90
2023-04-19T03:40:48.652Z,99.90
2023-04-19T03:43:22.460Z,99.90
2023-04-19T03:45:54.366Z,99.90
2023-04-19T03:48:28.035Z,99.90
2023-04-19T03:51:01.491Z,99.90
2023-04-19T03:53:33.840Z,99.90
2023-04-19T03:56:05.950Z,99.90
2023-04-19T03:58:39.335Z,99.90
2023-04-19T04:01:24.339Z,99.90
2023-04-19T04:03:57.905Z,99.90
2023-04-19T04:06:30.535Z,99.90
2023-04-19T04:09:02.556Z,99.90
2023-04-19T04:11:35.523Z,99.90
2023-04-19T04:14:07.688Z,99.90
2023-04-19T04:16:42.937Z,99.90
2023-04-19T04:19:15.471Z,99.90
2023-04-19T04:21:47.788Z,99.90
2023-04-19T04:24:22.345Z,99.90
2023-04-19T04:27:21.529Z,99.90
2023-04-19T04:29:56.831Z,99.90
2023-04-19T04:32:30.129Z,99.90
2023-04-19T04:35:06.995Z,99.90
2023-04-19T04:37:47.043Z,99.90
2023-04-19T04:40:19.388Z,99.90
2023-04-19T04:42:53.051Z,99.90
2023-04-19T04:45:25.513Z,99.90
2023-04-19T04:47:58.163Z,99.90
2023-04-19T04:50:30.148Z,99.90
2023-04-19T04:53:02.736Z,99.90
2023-04-19T04:55:37.096Z,99.90
2023-04-19T04:58:09.210Z,99.90
2023-04-19T05:00:57.025Z,99.90
2023-04-19T05:03:29.902Z,99.90
2023-04-19T05:06:04.836Z,99.90
2023-04-19T05:08:37.282Z,99.90
2023-04-19T05:11:24.536Z,99.90
2023-04-19T05:13:57.892Z,99.90
2023-04-19T05:16:30.115Z,99.90
2023-04-19T05:19:02.559Z,99.90
2023-04-19T05:21:39.062Z,99.90
2023-04-19T05:24:12.991Z,99.90
2023-04-19T05:26:45.695Z,99.90
2023-04-19T05:29:17.630Z,99.90
2023-04-19T05:31:55.495Z,99.90
2023-04-19T05:34:47.708Z,99.90
2023-04-19T05:37:21.034Z,99.90
2023-04-19T05:39:53.070Z,99.90
2023-04-19T05:42:25.053Z,99.90
2023-04-19T05:44:56.982Z,99.90
2023-04-19T05:47:28.867Z,99.90
2023-04-19T05:50:20.474Z,99.50
2023-04-19T05:53:18.433Z,99.20
2023-04-19T05:55:52.118Z,98.70
2023-04-19T05:58:24.515Z,98.40
2023-04-19T06:00:56.514Z,98.80
2023-04-19T06:03:31.424Z,98.60
2023-04-19T06:06:05.416Z,98.50
2023-04-19T06:08:37.407Z,98.50
2023-04-19T06:11:20.183Z,98.80
2023-04-19T06:13:58.882Z,98.90
2023-04-19T06:16:31.035Z,99.20
2023-04-19T06:19:03.622Z,99.50
2023-04-19T06:21:35.885Z,99.30
2023-04-19T06:24:07.989Z,99.30
2023-04-19T06:26:39.909Z,99.30
2023-04-19T06:29:11.817Z,99.00
2023-04-19T06:31:43.985Z,98.70
2023-04-19T06:34:16.793Z,98.40
2023-04-19T06:36:49.035Z,98.50
2023-04-19T06:39:20.985Z,98.30
2023-04-19T06:41:54.877Z,98.00
2023-04-19T06:44:28.069Z,97.50
2023-04-19T06:46:59.900Z,97.10
2023-04-19T06:49:31.776Z,96.40
2023-04-19T06:52:03.680Z,95.20
2023-04-19T06:54:35.782Z,94.20
2023-04-19T06:57:07.713Z,93.90
2023-04-19T06:59:39.994Z,93.60
2023-04-19T07:02:11.998Z,93.50
2023-04-19T07:04:44.061Z,93.80
2023-04-19T07:07:16.728Z,93.50
2023-04-19T07:09:48.608Z,93.20
2023-04-19T07:12:20.463Z,92.50
2023-04-19T07:14:56.424Z,92.80
2023-04-19T07:17:28.415Z,92.80
2023-04-19T07:20:00.296Z,93.20
2023-04-19T07:22:33.192Z,93.30
2023-04-19T07:25:05.364Z,93.00
2023-04-19T07:27:37.215Z,93.00
2023-04-19T07:30:09.571Z,92.90
2023-04-19T07:32:41.793Z,92.70
2023-04-19T07:35:13.783Z,92.60
2023-04-19T07:37:45.724Z,92.80
2023-04-19T07:40:17.648Z,93.00
2023-04-19T07:42:49.570Z,93.40
2023-04-19T07:45:21.464Z,93.50
2023-04-19T07:47:53.466Z,93.70
2023-04-19T07:50:29.186Z,94.40
2023-04-19T07:53:01.096Z,93.60
2023-04-19T07:55:33.034Z,93.10
2023-04-19T07:58:04.864Z,92.10
2023-04-19T08:00:37.918Z,92.40
2023-04-19T08:03:10.198Z,92.20
2023-04-19T08:05:42.326Z,91.10
2023-04-19T08:08:14.187Z,92.20
2023-04-19T08:10:46.165Z,92.10
2023-04-19T08:13:18.183Z,91.90
2023-04-19T08:18:25.118Z,91.50
2023-04-19T08:20:57.018Z,90.60
2023-04-19T08:23:34.956Z,91.00
2023-04-19T08:26:13.438Z,91.70
2023-04-19T08:28:45.531Z,91.70
2023-04-19T08:31:17.381Z,90.40
2023-04-19T08:33:49.301Z,89.90
2023-04-19T08:36:32.537Z,88.10
2023-04-19T08:39:15.043Z,86.70
2023-04-19T08:42:02.876Z,86.00
2023-04-19T08:44:45.059Z,87.30
2023-04-19T08:47:32.191Z,86.90
2023-04-19T08:50:17.406Z,87.10
2023-04-19T08:53:02.988Z,87.90
2023-04-19T08:56:06.795Z,87.20
2023-04-19T08:59:00.358Z,86.80
2023-04-19T09:01:36.052Z,87.30
2023-04-19T09:06:43.737Z,87.80
2023-04-19T09:09:34.038Z,88.90
2023-04-19T09:12:19.324Z,89.90
2023-04-19T09:15:01.072Z,90.30
2023-04-19T09:17:35.568Z,90.50
2023-04-19T09:20:08.438Z,90.90
2023-04-19T09:22:40.540Z,91.50
2023-04-19T09:25:43.800Z,90.80
2023-04-19T09:28:17.726Z,90.30
2023-04-19T09:31:00.664Z,90.50
2023-04-19T09:33:44.607Z,89.10
2023-04-19T09:36:32.028Z,90.70
2023-04-19T09:39:03.990Z,90.80
2023-04-19T09:41:39.543Z,91.00
2023-04-19T09:46:53.490Z,90.50
2023-04-19T09:49:41.733Z,90.20
2023-04-19T09:52:18.439Z,89.20
2023-04-19T09:54:53.730Z,90.40
2023-04-19T09:57:26.431Z,90.60
2023-04-19T10:02:58.436Z,89.20
2023-04-19T10:05:31.726Z,89.50
2023-04-19T10:08:04.890Z,90.00
2023-04-19T10:10:42.091Z,89.80
2023-04-19T10:13:21.321Z,89.80
2023-04-19T10:16:01.762Z,89.40
2023-04-19T10:18:43.820Z,90.10
2023-04-19T10:21:15.940Z,90.80
2023-04-19T10:23:48.561Z,90.80
2023-04-19T10:26:20.470Z,91.40
2023-04-19T10:28:55.764Z,91.40
2023-04-19T10:31:27.809Z,91.10
2023-04-19T10:33:59.871Z,90.30
2023-04-19T10:36:32.562Z,90.60
2023-04-19T10:39:04.934Z,90.90
2023-04-19T10:41:58.072Z,91.40
2023-04-19T10:44:29.933Z,92.00
2023-04-19T10:47:01.969Z,90.90
2023-04-19T10:49:46.230Z,90.80
2023-04-19T10:52:31.311Z,87.50
2023-04-19T10:55:05.731Z,88.40
2023-04-19T10:58:02.913Z,88.70
2023-04-19T11:00:36.249Z,90.30
2023-04-19T11:03:51.892Z,89.40
2023-04-19T11:06:27.237Z,88.00
2023-04-19T11:09:00.693Z,89.90
2023-04-19T11:11:36.401Z,89.80
2023-04-19T11:14:08.981Z,90.20
2023-04-19T11:16:45.843Z,89.30
2023-04-19T11:19:19.502Z,87.60
2023-04-19T11:21:51.569Z,85.10
2023-04-19T11:24:23.431Z,86.10
2023-04-19T11:26:57.727Z,85.60
2023-04-19T11:29:29.654Z,86.00
2023-04-19T11:32:01.688Z,86.10
2023-04-19T11:34:39.031Z,85.90
2023-04-19T11:37:11.641Z,85.40
2023-04-19T11:39:50.155Z,86.00
2023-04-19T11:42:22.108Z,87.00
2023-04-19T11:44:56.464Z,87.10
2023-04-19T11:47:28.566Z,88.20
2023-04-19T11:50:35.602Z,86.70
2023-04-19T11:53:13.325Z,87.70
2023-04-19T11:55:49.212Z,86.10
2023-04-19T11:58:29.675Z,86.20
2023-04-19T12:01:09.890Z,86.90
2023-04-19T12:03:44.978Z,85.60
2023-04-19T12:06:25.849Z,85.70
2023-04-19T12:08:58.615Z,84.60
2023-04-19T12:11:45.404Z,86.40
2023-04-19T12:14:22.963Z,87.40
2023-04-19T12:17:15.802Z,86.90
2023-04-19T12:19:48.083Z,86.90
2023-04-19T12:22:20.973Z,86.90
2023-04-19T12:24:54.027Z,85.90
2023-04-19T12:27:26.059Z,86.20
2023-04-19T12:29:57.973Z,85.00
2023-04-19T12:32:29.902Z,85.50
2023-04-19T12:35:01.942Z,84.00
2023-04-19T12:37:33.857Z,83.60
2023-04-19T12:40:07.629Z,85.20
2023-04-19T12:42:39.550Z,85.10
2023-04-19T12:45:12.780Z,84.50
2023-04-19T12:47:47.012Z,84.80
2023-04-19T12:50:18.947Z,84.50
2023-04-19T12:52:51.968Z,83.30
2023-04-19T12:55:23.903Z,83.30
2023-04-19T12:57:56.083Z,81.20
2023-04-19T13:00:28.114Z,81.00
2023-04-19T13:03:00.219Z,82.90
2023-04-19T13:05:32.242Z,83.30
2023-04-19T13:08:04.360Z,82.10
2023-04-19T13:10:36.302Z,81.70
2023-04-19T13:14:01.252Z,81.70
2023-04-19T13:16:35.927Z,82.00
2023-04-19T13:19:07.875Z,80.80
2023-04-19T13:21:39.764Z,81.20
2023-04-19T13:24:11.703Z,85.40
2023-04-19T13:26:46.174Z,86.60
2023-04-19T13:29:18.057Z,88.10
2023-04-19T13:31:50.249Z,89.10
2023-04-19T13:34:22.131Z,89.80
2023-04-19T13:36:54.063Z,90.40
2023-04-19T13:39:25.896Z,90.80
2023-04-19T13:41:57.820Z,91.50
2023-04-19T13:44:30.022Z,91.70
2023-04-19T13:47:02.013Z,91.90
2023-04-19T13:49:33.915Z,91.90
2023-04-19T13:52:06.458Z,91.70
2023-04-19T13:54:38.371Z,91.80
2023-04-19T13:57:10.236Z,91.20
2023-04-19T13:59:42.190Z,91.50
2023-04-19T14:02:14.076Z,91.70
2023-04-19T14:04:46.229Z,91.70
2023-04-19T14:07:18.259Z,92.10
2023-04-19T14:09:50.247Z,92.30
2023-04-19T14:12:22.200Z,92.30
2023-04-19T14:14:54.184Z,92.20
2023-04-19T14:17:26.423Z,92.00
2023-04-19T14:19:58.407Z,92.20
2023-04-19T14:22:32.086Z,92.10
2023-04-19T14:25:04.212Z,92.00
2023-04-19T14:27:36.128Z,92.20
2023-04-19T14:30:08.570Z,91.90
2023-04-19T14:32:40.641Z,91.50
2023-04-19T14:35:12.787Z,91.10
2023-04-19T14:37:44.686Z,91.20
2023-04-19T14:40:18.062Z,91.10
2023-04-19T14:42:50.015Z,91.30
2023-04-19T14:45:22.065Z,90.70
2023-04-19T14:47:54.121Z,90.20
2023-04-19T14:50:26.276Z,88.80
2023-04-19T14:52:58.437Z,89.90
2023-04-19T14:55:30.467Z,89.80
2023-04-19T14:58:02.479Z,89.90
2023-04-19T15:00:34.747Z,89.90
2023-04-19T15:03:06.857Z,90.00
2023-04-19T15:05:38.904Z,89.80
2023-04-19T15:08:23.384Z,89.50
2023-04-19T15:11:01.354Z,88.10
2023-04-19T15:13:33.915Z,88.00
2023-04-19T15:16:07.712Z,87.90
2023-04-19T15:18:39.701Z,88.20
2023-04-19T15:21:11.669Z,88.40
2023-04-19T15:23:43.581Z,88.10
2023-04-19T15:26:16.427Z,87.80
2023-04-19T15:28:48.284Z,88.10
2023-04-19T15:31:21.119Z,88.80
2023-04-19T15:33:53.543Z,89.30
2023-04-19T15:36:27.313Z,88.80
2023-04-19T15:39:00.572Z,89.50
2023-04-19T15:41:32.520Z,90.00
2023-04-19T15:44:04.382Z,90.10
2023-04-19T15:46:36.294Z,90.40
2023-04-19T15:49:08.433Z,90.40
2023-04-19T15:51:40.632Z,90.60
2023-04-19T15:54:14.702Z,91.10
2023-04-19T15:56:46.825Z,91.40
2023-04-19T15:59:18.924Z,91.40
2023-04-19T16:01:50.931Z,92.60
2023-04-19T16:04:23.097Z,92.40
2023-04-19T16:06:55.686Z,92.30
2023-04-19T16:09:27.541Z,93.50
2023-04-19T16:11:59.382Z,93.30
2023-04-19T16:14:31.264Z,93.40
2023-04-19T16:17:03.116Z,93.60
2023-04-19T16:19:34.993Z,94.20
2023-04-19T16:22:07.379Z,95.20
2023-04-19T16:24:39.490Z,95.80
2023-04-19T16:27:11.552Z,96.10
2023-04-19T16:29:43.542Z,96.60
2023-04-19T16:32:15.481Z,97.40
2023-04-19T16:34:47.517Z,97.60
2023-04-19T16:37:19.685Z,97.90
2023-04-19T16:39:51.608Z,99.10
2023-04-19T16:42:23.513Z,99.50
2023-04-19T16:44:55.489Z,99.90
2023-04-19T16:47:27.441Z,99.90
2023-04-19T16:50:00.364Z,99.90
2023-04-19T16:52:34.271Z,99.90
2023-04-19T16:55:07.005Z,99.90
2023-04-19T16:57:38.937Z,99.90
2023-04-19T17:00:12.022Z,99.90
2023-04-19T17:02:43.993Z,99.90
2023-04-19T17:05:16.314Z,99.90
2023-04-19T17:07:48.299Z,99.90
2023-04-19T17:10:20.425Z,99.90
2023-04-19T17:12:54.472Z,99.90
2023-04-19T17:15:26.762Z,99.90
2023-04-19T17:17:58.726Z,99.90
2023-04-19T17:20:30.758Z,99.90
2023-04-19T17:23:02.668Z,99.90
2023-04-19T17:25:34.549Z,99.90
2023-04-19T17:28:06.387Z,99.90
2023-04-19T17:30:38.264Z,99.90
2023-04-19T17:33:10.213Z,99.90
2023-04-19T17:35:42.119Z,99.90
2023-04-19T17:38:13.969Z,99.90
2023-04-19T17:40:45.936Z,99.90
2023-04-19T17:43:17.928Z,99.90
2023-04-19T17:45:49.891Z,99.90
2023-04-19T17:48:21.754Z,99.90
2023-04-19T17:50:54.253Z,99.90
2023-04-19T17:53:26.431Z,99.90
2023-04-19T17:55:58.795Z,99.90
2023-04-19T17:58:31.128Z,99.90
2023-04-19T18:01:03.607Z,99.90
2023-04-19T18:03:35.812Z,99.90
2023-04-19T18:06:12.474Z,99.90
2023-04-19T18:08:45.972Z,99.90
2023-04-19T18:11:18.298Z,99.90
2023-04-19T18:13:50.272Z,99.90
2023-04-19T18:16:22.282Z,99.90
2023-04-19T18:18:54.280Z,99.90
2023-04-19T18:21:26.500Z,99.90
2023-04-19T18:23:58.448Z,99.90
2023-04-19T18:26:38.261Z,99.90
2023-04-19T18:29:10.771Z,99.90
2023-04-19T18:31:42.994Z,99.90
2023-04-19T18:34:15.640Z,99.90
2023-04-19T18:36:47.853Z,99.90
2023-04-19T18:39:19.773Z,99.90
2023-04-19T18:41:51.739Z,99.90
2023-04-19T18:44:43.956Z,99.90
2023-04-19T18:47:15.974Z,99.90
2023-04-19T18:50:02.849Z,99.90
2023-04-19T18:52:37.355Z,99.90
2023-04-19T18:55:11.549Z,99.90
2023-04-19T18:57:43.468Z,99.90
2023-04-19T19:00:16.342Z,99.90
2023-04-19T19:02:48.468Z,99.90
2023-04-19T19:05:20.769Z,99.90
2023-04-19T19:07:54.414Z,99.90
2023-04-19T19:10:54.203Z,99.90
2023-04-19T19:13:21.788Z,99.90
2023-04-19T19:15:54.073Z,99.90
2023-04-19T19:18:28.118Z,99.90
2023-04-19T19:21:00.546Z,99.90
2023-04-19T19:23:42.166Z,99.90
2023-04-19T19:26:16.833Z,99.90
2023-04-19T19:28:50.780Z,99.90
2023-04-19T19:31:25.070Z,99.90
2023-04-19T19:34:18.171Z,99.90
2023-04-19T19:36:52.055Z,99.90
2023-04-19T19:39:30.543Z,99.90
2023-04-19T19:42:06.320Z,99.90
2023-04-19T19:44:39.592Z,99.90
2023-04-19T19:47:18.349Z,99.90
2023-04-19T19:50:33.696Z,99.90
2023-04-19T19:52:44.428Z,99.90
2023-04-19T19:55:19.267Z,99.90
2023-04-19T20:03:06.281Z,99.90
2023-04-19T20:05:39.672Z,99.90
2023-04-19T20:08:15.305Z,99.90
2023-04-19T20:10:47.726Z,99.90
2023-04-19T20:13:19.745Z,99.90
2023-04-19T20:15:54.851Z,99.90
2023-04-19T20:18:28.499Z,99.90
2023-04-19T20:21:01.322Z,99.90
2023-04-19T20:23:34.706Z,99.90
2023-04-19T20:26:07.424Z,99.90
2023-04-19T20:28:39.926Z,99.90
2023-04-19T20:31:12.640Z,99.90
2023-04-19T20:33:46.549Z,99.90
2023-04-19T20:36:20.929Z,99.90
2023-04-19T20:38:55.396Z,99.90
2023-04-19T20:41:29.265Z,99.90
2023-04-19T20:44:02.526Z,99.90
2023-04-19T20:46:36.736Z,99.90
2023-04-19T20:49:10.553Z,99.90
2023-04-19T20:51:44.003Z,99.90
2023-04-19T20:54:16.279Z,99.90
2023-04-19T20:56:48.567Z,99.90
2023-04-19T20:59:21.024Z,99.90
2023-04-19T21:01:54.677Z,99.90
2023-04-19T21:04:29.714Z,99.90
2023-04-19T21:07:02.155Z,99.90
2023-04-19T21:09:36.951Z,99.90
2023-04-19T21:12:11.587Z,99.90
2023-04-19T21:14:47.801Z,99.90
2023-04-19T21:17:22.983Z,99.90
2023-04-19T21:19:55.678Z,99.90
2023-04-19T21:22:30.877Z,99.90
2023-04-19T21:25:03.829Z,99.90
2023-04-19T21:27:37.278Z,99.90
2023-04-19T21:30:10.729Z,99.90
2023-04-19T21:32:42.851Z,99.90
2023-04-19T21:35:15.185Z,99.90
2023-04-19T21:37:47.111Z,99.90
2023-04-19T21:40:19.161Z,99.90
2023-04-19T21:42:51.106Z,99.90
2023-04-19T21:45:23.041Z,99.90
2023-04-19T21:47:54.988Z,99.90
2023-04-19T21:50:26.962Z,99.90
2023-04-19T21:52:58.939Z,99.90
2023-04-19T21:55:32.446Z,99.90
2023-04-19T21:58:04.374Z,99.90
2023-04-19T22:00:36.422Z,99.90
2023-04-19T22:03:08.513Z,99.90
2023-04-19T22:05:41.031Z,99.90
2023-04-19T22:08:13.156Z,99.90
2023-04-19T22:10:46.348Z,99.90
2023-04-19T22:13:18.462Z,99.90
2023-04-19T22:15:50.834Z,99.90
2023-04-19T22:18:22.748Z,99.90
2023-04-19T22:20:55.675Z,99.90
2023-04-19T22:23:27.833Z,99.90
2023-04-19T22:26:00.261Z,99.90
2023-04-19T22:28:33.792Z,99.90
2023-04-19T22:31:06.110Z,99.90
2023-04-19T22:33:37.995Z,99.90
2023-04-19T22:36:10.069Z,99.90
2023-04-19T22:38:42.104Z,99.90
2023-04-19T22:41:13.944Z,99.90
2023-04-19T22:43:45.909Z,99.90
2023-04-19T22:46:17.823Z,99.90
2023-04-19T22:48:49.921Z,99.90
2023-04-19T22:51:22.486Z,99.90
2023-04-19T22:53:54.317Z,99.90
2023-04-19T22:56:26.262Z,99.90
2023-04-19T22:58:58.139Z,99.90
2023-04-19T23:01:30.128Z,99.90
2023-04-19T23:04:02.085Z,99.90
2023-04-19T23:06:34.009Z,99.90
2023-04-19T23:09:06.096Z,99.90
2023-04-19T23:11:39.166Z,99.90
2023-04-19T23:14:11.058Z,99.90
2023-04-19T23:16:42.907Z,99.90
2023-04-19T23:19:16.633Z,99.90
2023-04-19T23:21:52.104Z,99.90
2023-04-19T23:24:24.388Z,99.90
2023-04-19T23:26:56.728Z,99.90
2023-04-19T23:29:28.567Z,99.90
2023-04-19T23:32:01.997Z,99.90
2023-04-19T23:34:33.978Z,99.90
2023-04-19T23:37:05.838Z,99.90
2023-04-19T23:39:38.373Z,99.90
2023-04-19T23:42:10.417Z,99.90
2023-04-19T23:44:43.904Z,99.90
2023-04-19T23:47:15.974Z,99.90
2023-04-19T23:49:48.140Z,99.90
2023-04-19T23:52:22.637Z,99.90
2023-04-19T23:54:54.574Z,99.90
2023-04-19T23:57:26.420Z,99.90
2023-04-19T23:59:58.258Z,99.90
